METAR AND TAF INFORMATION
METAR FOR KSTE
ADDS - METARS form results

(0140 UTC 21 October 2018)
Data provider http://aviationweather.gov/metar/data/
 
METAR text: KSTE 210135Z AUTO 33003KT 10SM CLR M02/M09 A3027 RMK AO2 T10191086
Conditions at: KSTE (STEVENS POINT , WI, US) observed 0135 UTC 21 October 2018
Temperature: -1.9°C (29°F)
Dewpoint: -8.6°C (17°F) [RH = 60%]
Pressure (altimeter): 30.27 inches Hg (1025.1 mb)
Winds: from the NNW (330 degrees) at 3 MPH (3 knots; 1.5 m/s)
Visibility: 10 or more miles (16+ km)
Ceiling: at least 12,000 feet AGL
Clouds: sky clear below 12,000 feet AGL
Weather: automated observation with no human augmentation;
there may or may not be significant weather present at this time

METAR text: KSTE 210115Z AUTO 30003KT 10SM CLR M02/M09 A3027 RMK AO2 T10161087
Conditions at: KSTE (STEVENS POINT , WI, US) observed 0115 UTC 21 October 2018
Temperature: -1.6°C (29°F)
Dewpoint: -8.7°C (16°F) [RH = 58%]
Pressure (altimeter): 30.27 inches Hg (1025.1 mb)
Winds: from the WNW (300 degrees) at 3 MPH (3 knots; 1.5 m/s)
Visibility: 10 or more miles (16+ km)
Ceiling: at least 12,000 feet AGL
Clouds: sky clear below 12,000 feet AGL
Weather: automated observation with no human augmentation;
there may or may not be significant weather present at this time

METAR text: KSTE 210055Z AUTO 32004KT 10SM CLR M01/M09 A3027 RMK AO2 T10151086
Conditions at: KSTE (STEVENS POINT , WI, US) observed 0055 UTC 21 October 2018
Temperature: -1.5°C (29°F)
Dewpoint: -8.6°C (17°F) [RH = 58%]
Pressure (altimeter): 30.27 inches Hg (1025.1 mb)
Winds: from the NW (320 degrees) at 5 MPH (4 knots; 2.1 m/s)
Visibility: 10 or more miles (16+ km)
Ceiling: at least 12,000 feet AGL
Clouds: sky clear below 12,000 feet AGL
Weather: automated observation with no human augmentation;
there may or may not be significant weather present at this time

 AIRPORT MAP

Esri Leaflet Quickstart
 RUNWAY INFORMATION
Runway 03 Runway length 6028 ft Runway width 120 ft
Runway elevation 1103 ft Runway displaced threshold 0 ft Runway heading 30
Runway 21 Runway length 6028 ft Runway width 120 ft
Runway elevation 1110 ft Runway displaced threshold 0 ft Runway heading 210
Runway 12 Runway length 3635 ft Runway width 75 ft
Runway elevation 1105 ft Runway displaced threshold 0 ft Runway heading 120
Runway 30 Runway length 3635 ft Runway width 75 ft
Runway elevation 1103 ft Runway displaced threshold 0 ft Runway heading 300

 AIRPORT FREQUENCIES
Type AWOS Name AWOS 3 Frequency 119.275 MHZ
Type CNTR Name MINNEAPOLI Frequency 124.4 MHZ
Type RDO Name GREEN BAY Frequency 110.6 MHZ
Type UNIC Name CTAF/UNICO Frequency 122.7 MHZ

 AIRPORT NEAR NAVIGATION AIDS



Powered by Virtual Airlines Manager [v2.6.2]